createdAt,value
2023-04-05T00:01:25.521Z,99155.13
2023-04-05T00:03:58.452Z,99155.88
2023-04-05T00:06:26.588Z,99155.31
2023-04-05T00:08:55.534Z,99151.28
2023-04-05T00:11:22.621Z,99146.44
2023-04-05T00:13:48.963Z,99151.19
2023-04-05T00:16:16.034Z,99160.50
2023-04-05T00:18:46.120Z,99154.38
2023-04-05T00:21:14.698Z,99152.19
2023-04-05T00:23:41.453Z,99151.63
2023-04-05T00:26:07.993Z,99157.19
2023-04-05T00:28:34.326Z,99150.25
2023-04-05T00:31:00.723Z,99158.72
2023-04-05T00:33:27.058Z,99161.63
2023-04-05T00:35:53.404Z,99160.03
2023-04-05T00:38:19.760Z,99155.16
2023-04-05T00:40:46.193Z,99161.81
2023-04-05T00:43:12.534Z,99166.00
2023-04-05T00:45:39.021Z,99161.16
2023-04-05T00:48:05.599Z,99156.06
2023-04-05T00:50:32.690Z,99153.88
2023-04-05T00:52:59.132Z,99151.72
2023-04-05T00:55:26.570Z,99152.72
2023-04-05T00:57:59.089Z,99148.44
2023-04-05T01:00:26.031Z,99149.03
2023-04-05T01:02:52.637Z,99139.75
2023-04-05T01:05:21.965Z,99142.41
2023-04-05T01:07:54.187Z,99135.22
2023-04-05T01:10:21.231Z,99133.63
2023-04-05T01:12:47.554Z,99133.06
2023-04-05T01:15:14.035Z,99135.72
2023-04-05T01:17:42.860Z,99129.78
2023-04-05T01:20:13.193Z,99129.22
2023-04-05T01:22:40.329Z,99123.31
2023-04-05T01:25:11.024Z,99128.91
2023-04-05T01:27:45.672Z,99129.94
2023-04-05T01:30:17.685Z,99131.22
2023-04-05T01:32:47.183Z,99126.16
2023-04-05T01:35:29.599Z,99125.56
2023-04-05T01:37:57.588Z,99118.88
2023-04-05T01:40:23.926Z,99112.97
2023-04-05T01:42:50.239Z,99115.06
2023-04-05T01:45:16.612Z,99121.69
2023-04-05T01:47:43.020Z,99116.28
2023-04-05T01:50:09.492Z,99111.09
2023-04-05T01:52:35.893Z,99115.38
2023-04-05T01:55:03.365Z,99119.34
2023-04-05T01:57:29.695Z,99105.69
2023-04-05T01:59:56.049Z,99111.28
2023-04-05T02:02:22.424Z,99106.50
2023-04-05T02:04:48.781Z,99108.91
2023-04-05T02:07:15.680Z,99103.13
2023-04-05T02:09:42.009Z,99101.72
2023-04-05T02:12:08.322Z,99107.06
2023-04-05T02:14:35.374Z,99101.19
2023-04-05T02:17:03.155Z,99098.75
2023-04-05T02:19:31.671Z,99102.44
2023-04-05T02:21:58.030Z,99103.28
2023-04-05T02:24:24.409Z,99096.91
2023-04-05T02:26:51.194Z,99099.56
2023-04-05T02:29:17.539Z,99094.47
2023-04-05T02:31:43.948Z,99095.50
2023-04-05T02:34:11.606Z,99098.19
2023-04-05T02:36:37.954Z,99103.75
2023-04-05T02:39:04.782Z,99096.81
2023-04-05T02:41:31.119Z,99100.75
2023-04-05T02:43:57.464Z,99101.00
2023-04-05T02:46:24.055Z,99091.63
2023-04-05T02:48:50.477Z,99103.31
2023-04-05T02:51:16.805Z,99099.63
2023-04-05T02:53:44.841Z,99099.06
2023-04-05T02:56:14.284Z,99092.59
2023-04-05T02:58:41.086Z,99089.38
2023-04-05T03:01:07.519Z,99091.44
2023-04-05T03:03:37.503Z,99094.56
2023-04-05T03:06:10.202Z,99091.09
2023-04-05T03:08:38.706Z,99081.06
2023-04-05T03:11:06.031Z,99076.78
2023-04-05T03:13:32.336Z,99074.69
2023-04-05T03:15:58.659Z,99077.81
2023-04-05T03:18:26.640Z,99067.97
2023-04-05T03:20:59.698Z,99069.81
2023-04-05T03:23:27.382Z,99063.69
2023-04-05T03:25:54.745Z,99067.16
2023-04-05T03:28:21.069Z,99063.47
2023-04-05T03:30:47.445Z,99059.41
2023-04-05T03:33:13.812Z,99063.69
2023-04-05T03:35:40.344Z,99057.81
2023-04-05T03:38:07.549Z,99050.28
2023-04-05T03:40:33.889Z,99053.75
2023-04-05T03:43:00.330Z,99054.00
2023-04-05T03:45:27.097Z,99056.66
2023-04-05T03:47:54.908Z,99050.75
2023-04-05T03:50:21.456Z,99059.56
2023-04-05T03:52:48.028Z,99054.47
2023-04-05T03:55:16.870Z,99060.03
2023-04-05T03:57:43.223Z,99058.06
2023-04-05T04:00:14.434Z,99062.84
2023-04-05T04:02:42.273Z,99060.97
2023-04-05T04:05:08.694Z,99058.78
2023-04-05T04:07:35.278Z,99061.44
2023-04-05T04:10:01.616Z,99064.91
2023-04-05T04:12:27.945Z,99060.63
2023-04-05T04:14:54.299Z,99060.88
2023-04-05T04:17:30.362Z,99060.88
2023-04-05T04:19:56.804Z,99068.63
2023-04-05T04:22:23.682Z,99064.56
2023-04-05T04:24:50.127Z,99059.50
2023-04-05T04:27:20.405Z,99073.34
2023-04-05T04:29:49.533Z,99066.66
2023-04-05T04:32:16.180Z,99069.34
2023-04-05T04:34:44.734Z,99065.88
2023-04-05T04:37:18.305Z,99066.66
2023-04-05T04:39:46.306Z,99067.47
2023-04-05T04:42:12.914Z,99062.41
2023-04-05T04:44:39.248Z,99067.47
2023-04-05T04:47:13.739Z,99069.56
2023-04-05T04:49:41.637Z,99067.94
2023-04-05T04:52:07.993Z,99062.63
2023-04-05T04:54:34.884Z,99055.13
2023-04-05T04:57:02.166Z,99065.19
2023-04-05T04:59:28.923Z,99065.53
2023-04-05T05:01:55.300Z,99071.91
2023-04-05T05:04:22.789Z,99069.22
2023-04-05T05:06:53.972Z,99074.56
2023-04-05T05:09:20.706Z,99074.56
2023-04-05T05:11:47.065Z,99072.13
2023-04-05T05:14:13.418Z,99077.94
2023-04-05T05:16:39.795Z,99074.47
2023-04-05T05:19:06.299Z,99078.97
2023-04-05T05:21:32.680Z,99075.50
2023-04-05T05:23:59.010Z,99077.59
2023-04-05T05:26:25.379Z,99081.03
2023-04-05T05:28:51.725Z,99083.72
2023-04-05T05:31:18.395Z,99084.75
2023-04-05T05:33:47.788Z,99079.19
2023-04-05T05:36:14.114Z,99076.78
2023-04-05T05:38:40.448Z,99075.38
2023-04-05T05:41:06.783Z,99077.25
2023-04-05T05:43:33.162Z,99084.41
2023-04-05T05:46:02.337Z,99079.91
2023-04-05T05:48:28.714Z,99081.28
2023-04-05T05:50:56.306Z,99073.88
2023-04-05T05:53:22.874Z,99077.69
2023-04-05T05:55:49.205Z,99072.69
2023-04-05T05:58:15.870Z,99077.34
2023-04-05T06:00:42.767Z,99071.91
2023-04-05T06:03:09.925Z,99067.94
2023-04-05T06:05:36.381Z,99074.06
2023-04-05T06:08:03.904Z,99068.88
2023-04-05T06:10:30.706Z,99069.75
2023-04-05T06:12:57.019Z,99073.09
2023-04-05T06:15:23.353Z,99062.78
2023-04-05T06:17:49.745Z,99072.72
2023-04-05T06:20:16.509Z,99062.16
2023-04-05T06:22:44.372Z,99061.78
2023-04-05T06:25:12.289Z,99065.16
2023-04-05T06:27:38.612Z,99069.97
2023-04-05T06:30:05.358Z,99065.94
2023-04-05T06:32:31.724Z,99064.94
2023-04-05T06:34:58.144Z,99061.31
2023-04-05T06:37:24.520Z,99063.59
2023-04-05T06:39:50.924Z,99060.28
2023-04-05T06:42:17.393Z,99066.00
2023-04-05T06:44:50.114Z,99063.41
2023-04-05T06:47:16.461Z,99063.78
2023-04-05T06:49:43.466Z,99067.41
2023-04-05T06:52:09.902Z,99065.50
2023-04-05T06:54:39.678Z,99065.22
2023-04-05T06:57:06.332Z,99070.44
2023-04-05T06:59:32.881Z,99067.41
2023-04-05T07:01:59.800Z,99067.44
2023-04-05T07:04:26.727Z,99064.50
2023-04-05T07:06:53.873Z,99065.34
2023-04-05T07:09:22.164Z,99061.09
2023-04-05T07:11:48.492Z,99061.09
2023-04-05T07:14:14.999Z,99060.59
2023-04-05T07:16:42.081Z,99058.53
2023-04-05T07:19:08.591Z,99058.81
2023-04-05T07:21:35.522Z,99053.53
2023-04-05T07:24:03.330Z,99049.28
2023-04-05T07:26:29.662Z,99048.00
2023-04-05T07:28:56.517Z,99053.84
2023-04-05T07:31:23.026Z,99048.00
2023-04-05T07:33:49.746Z,99046.97
2023-04-05T07:36:16.121Z,99046.63
2023-04-05T07:38:43.095Z,99041.81
2023-04-05T07:41:09.431Z,99051.13
2023-04-05T07:43:36.028Z,99043.50
2023-04-05T07:46:03.109Z,99043.31
2023-04-05T07:48:29.621Z,99045.69
2023-04-05T07:50:55.988Z,99047.91
2023-04-05T07:53:22.303Z,99049.50
2023-04-05T07:55:49.908Z,99048.16
2023-04-05T07:58:16.223Z,99052.44
2023-04-05T08:00:43.026Z,99054.59
2023-04-05T08:03:13.224Z,99047.34
2023-04-05T08:05:40.734Z,99054.72
2023-04-05T08:08:08.778Z,99052.78
2023-04-05T08:10:38.386Z,99054.22
2023-04-05T08:13:06.813Z,99048.56
2023-04-05T08:15:33.508Z,99050.66
2023-04-05T08:17:59.855Z,99052.91
2023-04-05T08:20:26.312Z,99045.50
2023-04-05T08:22:52.859Z,99043.06
2023-04-05T08:25:19.187Z,99045.28
2023-04-05T08:27:45.874Z,99048.06
2023-04-05T08:30:12.276Z,99043.22
2023-04-05T08:32:38.619Z,99048.69
2023-04-05T08:35:05.059Z,99044.16
2023-04-05T08:37:34.822Z,99043.22
2023-04-05T08:40:01.264Z,99041.28
2023-04-05T08:42:33.312Z,99040.69
2023-04-05T08:44:59.991Z,99041.47
2023-04-05T08:47:26.409Z,99037.75
2023-04-05T08:49:52.835Z,99040.00
2023-04-05T08:52:19.175Z,99043.22
2023-04-05T08:54:45.559Z,99041.44
2023-04-05T08:57:11.873Z,99042.75
2023-04-05T08:59:38.421Z,99052.41
2023-04-05T09:02:07.024Z,99047.34
2023-04-05T09:04:34.989Z,99047.59
2023-04-05T09:07:01.442Z,99034.50
2023-04-05T09:09:28.686Z,99039.22
2023-04-05T09:11:56.993Z,99039.38
2023-04-05T09:14:23.304Z,99041.69
2023-04-05T09:16:49.670Z,99042.59
2023-04-05T09:19:16.152Z,99044.38
2023-04-05T09:21:57.242Z,99037.91
2023-04-05T09:24:31.002Z,99036.34
2023-04-05T09:27:03.416Z,99026.41
2023-04-05T09:29:30.522Z,99025.81
2023-04-05T09:31:56.860Z,99029.34
2023-04-05T09:34:23.187Z,99031.53
2023-04-05T09:36:49.516Z,99028.94
2023-04-05T09:39:20.416Z,99026.09
2023-04-05T09:41:46.729Z,99025.59
2023-04-05T09:44:13.041Z,99024.09
2023-04-05T09:46:39.816Z,99024.97
2023-04-05T09:49:07.891Z,99013.63
2023-04-05T09:51:34.688Z,99015.69
2023-04-05T09:54:02.104Z,99017.66
2023-04-05T09:56:28.898Z,99015.81
2023-04-05T09:59:08.052Z,99015.06
2023-04-05T10:01:34.441Z,99009.28
2023-04-05T10:04:01.073Z,99010.38
2023-04-05T10:06:37.527Z,99012.03
2023-04-05T10:09:04.963Z,99008.84
2023-04-05T10:11:32.020Z,99001.44
2023-04-05T10:14:00.122Z,99007.88
2023-04-05T10:16:26.508Z,99010.59
2023-04-05T10:18:52.877Z,98999.41
2023-04-05T10:21:21.440Z,98995.97
2023-04-05T10:23:47.805Z,98998.41
2023-04-05T10:26:16.928Z,98987.50
2023-04-05T10:28:43.504Z,98992.59
2023-04-05T10:31:36.402Z,98992.63
2023-04-05T10:34:07.355Z,98988.38
2023-04-05T10:36:38.268Z,98985.97
2023-04-05T10:39:05.992Z,98987.84
2023-04-05T10:41:36.616Z,98986.56
2023-04-05T10:44:09.193Z,98989.25
2023-04-05T10:46:41.643Z,98985.97
2023-04-05T10:49:21.866Z,98978.38
2023-04-05T10:51:48.255Z,98977.69
2023-04-05T10:54:17.046Z,98973.72
2023-04-05T10:56:43.380Z,98975.31
2023-04-05T10:59:11.022Z,98976.66
2023-04-05T11:01:38.688Z,98971.63
2023-04-05T11:04:11.807Z,98965.97
2023-04-05T11:06:38.229Z,98974.78
2023-04-05T11:09:11.473Z,98960.66
2023-04-05T11:11:41.600Z,98965.19
2023-04-05T11:14:17.631Z,98968.31
2023-04-05T11:16:44.682Z,98962.41
2023-04-05T11:19:11.050Z,98965.38
2023-04-05T11:21:37.407Z,98961.38
2023-04-05T11:24:07.021Z,98958.94
2023-04-05T11:26:34.072Z,98960.03
2023-04-05T11:29:34.551Z,98953.94
2023-04-05T11:32:06.092Z,98958.72
2023-04-05T11:34:35.616Z,98951.69
2023-04-05T11:37:02.029Z,98946.59
2023-04-05T11:39:28.775Z,98945.75
2023-04-05T11:42:04.068Z,98945.19
2023-04-05T11:44:39.371Z,98937.13
2023-04-05T11:47:05.888Z,98940.03
2023-04-05T11:49:32.667Z,98935.19
2023-04-05T11:51:58.968Z,98932.50
2023-04-05T11:54:31.722Z,98924.81
2023-04-05T11:56:58.006Z,98925.31
2023-04-05T11:59:36.326Z,98929.00
2023-04-05T12:02:04.094Z,98924.16
2023-04-05T12:04:30.435Z,98920.41
2023-04-05T12:07:12.640Z,98917.50
2023-04-05T12:09:57.295Z,98915.09
2023-04-05T12:12:23.603Z,98912.19
2023-04-05T12:14:49.878Z,98905.28
2023-04-05T12:17:16.176Z,98909.06
2023-04-05T12:19:42.579Z,98909.59
2023-04-05T12:22:08.862Z,98910.75
2023-04-05T12:24:35.167Z,98914.69
2023-04-05T12:27:01.471Z,98905.06
2023-04-05T12:29:27.752Z,98911.22
2023-04-05T12:31:54.297Z,98903.16
2023-04-05T12:34:24.049Z,98898.59
2023-04-05T12:36:50.410Z,98896.44
2023-04-05T12:39:17.096Z,98894.00
2023-04-05T12:41:43.396Z,98894.53
2023-04-05T12:44:16.119Z,98893.16
2023-04-05T12:46:45.897Z,98889.38
2023-04-05T12:49:12.618Z,98879.78
2023-04-05T12:54:05.135Z,98880.00
2023-04-05T12:56:32.410Z,98878.94
2023-04-05T12:58:58.951Z,98871.72
2023-04-05T13:01:25.476Z,98868.25
2023-04-05T13:03:58.931Z,98863.47
2023-04-05T13:06:34.205Z,98864.81
2023-04-05T13:11:26.925Z,98861.63
2023-04-05T13:13:53.213Z,98860.31
2023-04-05T13:16:19.531Z,98856.06
2023-04-05T13:18:45.874Z,98849.91
2023-04-05T13:21:12.191Z,98854.44
2023-04-05T13:23:38.733Z,98840.25
2023-04-05T13:26:05.170Z,98845.88
2023-04-05T13:28:31.469Z,98836.75
2023-04-05T13:30:57.816Z,98841.81
2023-04-05T13:33:24.141Z,98840.19
2023-04-05T13:35:50.748Z,98834.34
2023-04-05T13:38:17.059Z,98841.78
2023-04-05T13:40:43.340Z,98834.03
2023-04-05T13:43:09.893Z,98833.72
2023-04-05T13:45:37.624Z,98833.47
2023-04-05T13:48:03.999Z,98822.47
2023-04-05T13:50:30.379Z,98833.41
2023-04-05T13:52:56.665Z,98829.94
2023-04-05T13:55:22.948Z,98824.84
2023-04-05T13:57:49.242Z,98826.16
2023-04-05T14:00:15.635Z,98826.41
2023-04-05T14:02:42.142Z,98820.03
2023-04-05T14:05:08.782Z,98817.34
2023-04-05T14:07:35.124Z,98815.22
2023-04-05T14:10:01.419Z,98817.56
2023-04-05T14:12:27.736Z,98813.03
2023-04-05T14:14:54.015Z,98813.53
2023-04-05T14:17:20.373Z,98812.44
2023-04-05T14:19:46.665Z,98807.41
2023-04-05T14:22:13.178Z,98799.97
2023-04-05T14:24:39.467Z,98794.38
2023-04-05T14:27:06.077Z,98793.88
2023-04-05T14:29:33.076Z,98795.44
2023-04-05T14:31:59.448Z,98799.97
2023-04-05T14:34:25.872Z,98784.19
2023-04-05T14:36:52.199Z,98797.00
2023-04-05T14:39:18.596Z,98783.84
2023-04-05T14:41:50.050Z,98790.50
2023-04-05T14:44:16.526Z,98789.97
2023-04-05T14:46:42.802Z,98785.91
2023-04-05T14:49:09.189Z,98780.84
2023-04-05T14:51:35.642Z,98780.28
2023-04-05T14:54:01.934Z,98780.56
2023-04-05T14:56:28.201Z,98778.16
2023-04-05T14:58:54.521Z,98775.47
2023-04-05T15:01:20.985Z,98770.16
2023-04-05T15:03:48.319Z,98772.25
2023-04-05T15:06:16.221Z,98770.66
2023-04-05T15:08:42.510Z,98769.28
2023-04-05T15:11:08.802Z,98762.59
2023-04-05T15:13:35.683Z,98767.38
2023-04-05T15:16:02.024Z,98764.44
2023-04-05T15:18:28.610Z,98772.66
2023-04-05T15:20:55.232Z,98765.50
2023-04-05T15:23:21.591Z,98762.00
2023-04-05T15:25:48.606Z,98767.34
2023-04-05T15:28:14.951Z,98756.94
2023-04-05T15:30:42.984Z,98756.44
2023-04-05T15:33:09.320Z,98756.72
2023-04-05T15:35:36.505Z,98758.78
2023-04-05T15:38:03.305Z,98756.59
2023-04-05T15:40:29.626Z,98755.47
2023-04-05T15:42:56.370Z,98756.00
2023-04-05T15:45:22.689Z,98749.88
2023-04-05T15:47:49.246Z,98750.09
2023-04-05T15:50:15.754Z,98755.69
2023-04-05T15:52:42.327Z,98756.75
2023-04-05T15:55:08.647Z,98755.16
2023-04-05T15:57:34.986Z,98750.28
2023-04-05T16:00:01.578Z,98753.47
2023-04-05T16:02:27.932Z,98753.75
2023-04-05T16:04:54.257Z,98746.75
2023-04-05T16:07:20.705Z,98748.59
2023-04-05T16:09:47.023Z,98755.59
2023-04-05T16:12:13.428Z,98747.34
2023-04-05T16:14:39.855Z,98753.75
2023-04-05T16:17:06.241Z,98755.84
2023-04-05T16:19:33.320Z,98749.97
2023-04-05T16:22:00.100Z,98747.84
2023-04-05T16:24:27.247Z,98748.38
2023-04-05T16:26:53.596Z,98744.09
2023-04-05T16:29:19.936Z,98742.47
2023-04-05T16:31:47.439Z,98743.53
2023-04-05T16:34:14.116Z,98745.38
2023-04-05T16:36:41.273Z,98738.25
2023-04-05T16:39:07.779Z,98747.84
2023-04-05T16:41:35.373Z,98739.91
2023-04-05T16:44:01.702Z,98747.41
2023-04-05T16:46:30.606Z,98742.69
2023-04-05T16:48:56.986Z,98736.53
2023-04-05T16:51:23.306Z,98737.84
2023-04-05T16:53:49.712Z,98736.53
2023-04-05T16:56:16.168Z,98731.97
2023-04-05T16:58:42.518Z,98729.59
2023-04-05T17:01:08.891Z,98733.88
2023-04-05T17:03:35.400Z,98733.06
2023-04-05T17:06:02.910Z,98736.53
2023-04-05T17:08:29.208Z,98734.09
2023-04-05T17:10:55.544Z,98729.84
2023-04-05T17:13:21.869Z,98730.41
2023-04-05T17:15:49.170Z,98728.56
2023-04-05T17:18:15.594Z,98728.50
2023-04-05T17:20:42.231Z,98723.41
2023-04-05T17:23:08.533Z,98730.34
2023-04-05T17:25:34.914Z,98721.19
2023-04-05T17:28:01.231Z,98728.16
2023-04-05T17:30:27.689Z,98721.81
2023-04-05T17:32:54.076Z,98730.94
2023-04-05T17:35:20.553Z,98724.44
2023-04-05T17:37:47.523Z,98721.13
2023-04-05T17:40:14.014Z,98723.41
2023-04-05T17:42:40.327Z,98723.78
2023-04-05T17:45:07.113Z,98725.47
2023-04-05T17:47:33.490Z,98724.47
2023-04-05T17:50:00.009Z,98727.97
2023-04-05T17:52:26.969Z,98729.59
2023-04-05T17:54:54.357Z,98722.16
2023-04-05T17:57:20.795Z,98728.34
2023-04-05T17:59:47.129Z,98724.66
2023-04-05T18:02:13.647Z,98727.09
2023-04-05T18:04:40.153Z,98725.78
2023-04-05T18:07:06.851Z,98722.84
2023-04-05T18:09:33.629Z,98717.25
2023-04-05T18:12:00.098Z,98713.75
2023-04-05T18:14:26.431Z,98712.94
2023-04-05T18:16:53.054Z,98713.75
2023-04-05T18:19:21.169Z,98721.75
2023-04-05T18:21:47.517Z,98723.91
2023-04-05T18:24:13.859Z,98728.97
2023-04-05T18:26:40.185Z,98725.78
2023-04-05T18:29:06.772Z,98725.03
2023-04-05T18:31:33.254Z,98731.16
2023-04-05T18:34:05.840Z,98729.84
2023-04-05T18:36:32.268Z,98726.88
2023-04-05T18:38:59.295Z,98733.31
2023-04-05T18:41:26.709Z,98743.75
2023-04-05T18:43:56.255Z,98741.81
2023-04-05T18:46:22.746Z,98735.69
2023-04-05T18:48:55.980Z,98741.56
2023-04-05T18:51:22.448Z,98748.53
2023-04-05T18:53:48.837Z,98747.69
2023-04-05T18:56:15.320Z,98749.31
2023-04-05T18:58:41.681Z,98747.19
2023-04-05T19:01:14.178Z,98753.31
2023-04-05T19:03:40.800Z,98753.59
2023-04-05T19:06:07.184Z,98751.75
2023-04-05T19:08:33.536Z,98758.47
2023-04-05T19:10:59.876Z,98764.06
2023-04-05T19:13:26.194Z,98757.91
2023-04-05T19:15:53.201Z,98760.84
2023-04-05T19:18:25.707Z,98768.59
2023-04-05T19:20:55.691Z,98766.47
2023-04-05T19:23:22.550Z,98767.81
2023-04-05T19:25:48.870Z,98765.13
2023-04-05T19:28:15.662Z,98767.00
2023-04-05T19:30:41.999Z,98778.50
2023-04-05T19:33:08.364Z,98770.47
2023-04-05T19:35:34.851Z,98767.28
2023-04-05T19:38:01.176Z,98772.88
2023-04-05T19:40:27.534Z,98774.72
2023-04-05T19:42:53.849Z,98773.91
2023-04-05T19:45:24.082Z,98778.75
2023-04-05T19:47:50.715Z,98780.63
2023-04-05T19:50:37.203Z,98776.59
2023-04-05T19:53:03.511Z,98766.19
2023-04-05T19:55:32.788Z,98768.06
2023-04-05T19:57:59.430Z,98764.59
2023-04-05T20:00:33.580Z,98767.28
2023-04-05T20:03:01.318Z,98769.16
2023-04-05T20:05:43.071Z,98759.75
2023-04-05T20:08:09.395Z,98757.59
2023-04-05T20:10:39.398Z,98761.63
2023-04-05T20:13:06.013Z,98765.09
2023-04-05T20:15:32.686Z,98767.25
2023-04-05T20:17:59.004Z,98766.19
2023-04-05T20:20:25.391Z,98758.72
2023-04-05T20:22:51.725Z,98761.13
2023-04-05T20:25:35.884Z,98758.19
2023-04-05T20:28:02.283Z,98759.50
2023-04-05T20:30:28.602Z,98754.72
2023-04-05T20:32:54.928Z,98758.47
2023-04-05T20:35:31.018Z,98756.00
2023-04-05T20:37:57.364Z,98757.34
2023-04-05T20:40:23.687Z,98757.59
2023-04-05T20:42:50.009Z,98752.25
2023-04-05T20:45:16.650Z,98744.22
2023-04-05T20:47:42.978Z,98745.03
2023-04-05T20:50:09.399Z,98748.25
2023-04-05T20:52:36.122Z,98738.63
2023-04-05T20:55:02.429Z,98745.03
2023-04-05T20:57:29.373Z,98737.00
2023-04-05T20:59:55.851Z,98736.75
2023-04-05T21:02:22.220Z,98740.53
2023-04-05T21:04:50.426Z,98744.28
2023-04-05T21:07:17.538Z,98746.97
2023-04-05T21:09:43.868Z,98748.03
2023-04-05T21:12:11.216Z,98743.47
2023-04-05T21:14:37.519Z,98735.72
2023-04-05T21:17:04.128Z,98739.47
2023-04-05T21:19:30.518Z,98742.38
2023-04-05T21:21:56.831Z,98743.75
2023-04-05T21:24:23.140Z,98738.63
2023-04-05T21:26:49.446Z,98737.84
2023-04-05T21:29:15.894Z,98734.38
2023-04-05T21:31:42.253Z,98736.25
2023-04-05T21:34:08.615Z,98741.59
2023-04-05T21:36:35.338Z,98738.91
2023-04-05T21:39:01.662Z,98734.13
2023-04-05T21:41:27.992Z,98737.31
2023-04-05T21:43:54.302Z,98736.25
2023-04-05T21:46:20.895Z,98726.06
2023-04-05T21:48:47.237Z,98734.63
2023-04-05T21:51:13.554Z,98734.91
2023-04-05T21:53:39.872Z,98732.50
2023-04-05T21:56:06.195Z,98733.31
2023-04-05T21:58:32.586Z,98725.28
2023-04-05T22:00:59.875Z,98726.88
2023-04-05T22:03:26.282Z,98733.03
2023-04-05T22:05:52.655Z,98728.75
2023-04-05T22:08:18.965Z,98732.50
2023-04-05T22:10:45.582Z,98736.00
2023-04-05T22:13:12.172Z,98730.63
2023-04-05T22:15:38.793Z,98729.28
2023-04-05T22:18:05.626Z,98720.19
2023-04-05T22:20:32.170Z,98716.16
2023-04-05T22:22:58.526Z,98720.72
2023-04-05T22:25:26.279Z,98720.97
2023-04-05T22:27:52.652Z,98721.25
2023-04-05T22:30:19.682Z,98719.09
2023-04-05T22:32:46.716Z,98727.66
2023-04-05T22:35:13.311Z,98728.16
2023-04-05T22:37:40.627Z,98722.03
2023-04-05T22:40:07.144Z,98717.47
2023-04-05T22:42:33.470Z,98719.34
2023-04-05T22:44:59.850Z,98719.63
2023-04-05T22:47:26.416Z,98723.63
2023-04-05T22:49:52.876Z,98720.44
2023-04-05T22:52:19.314Z,98714.53
2023-04-05T22:54:45.852Z,98715.88
2023-04-05T22:57:12.825Z,98708.94
2023-04-05T22:59:39.255Z,98710.03
2023-04-05T23:02:05.802Z,98704.44
2023-04-05T23:04:32.273Z,98700.94
2023-04-05T23:06:58.888Z,98703.09
2023-04-05T23:09:25.203Z,98701.22
2023-04-05T23:11:51.606Z,98707.66
2023-04-05T23:14:17.936Z,98697.47
2023-04-05T23:16:44.276Z,98697.19
2023-04-05T23:19:10.718Z,98698.25
2023-04-05T23:21:37.176Z,98701.22
2023-04-05T23:24:05.768Z,98694.53
2023-04-05T23:26:32.198Z,98695.06
2023-04-05T23:28:58.520Z,98686.50
2023-04-05T23:31:24.859Z,98684.63
2023-04-05T23:33:51.613Z,98680.88
2023-04-05T23:36:17.969Z,98684.63
2023-04-05T23:38:44.285Z,98685.69
2023-04-05T23:41:11.019Z,98681.66
2023-04-05T23:43:37.352Z,98678.19
2023-04-05T23:46:03.753Z,98675.81
2023-04-05T23:48:30.116Z,98668.81
2023-04-05T23:50:56.601Z,98667.50
2023-04-05T23:53:22.927Z,98663.47
2023-04-05T23:55:53.055Z,98665.13
2023-04-05T23:58:19.360Z,98660.31
